Aeroporto :
LOGIN :

Iscrizione | Disclaimer

   EN    FR    IT 

 










Sommario :    VFR   VFR Marginale   IFR   IFR Intensivo   IFR Molto Intensivo
Visibilità : 
Base nubi : 
>= 8 km
>= 3000ft
5 / 8 km
1000 / 3000 ft
1500m / 5 km
500 / 1000 ft
800 / 1500m
200 / 500 ft
< 800m
< 200 ft
Simboli :   Temporali  Nebbia  Neve Forte  Precipitazioni Forti  Vento > 20 kt
SIGMETs :   Varie  Temporali  Ghiacco  Turbolenza  Onda orograficha  Ceneri Vulcaniche






- Altitudine del aeroporto : 295 ft
- Codice IATA : BWE


EDVE - Braunschweig

ULTIMO METAR :
  • 220450Z 32005KT 280V360 9999 FEW011 OVC033 13/11 Q1014

METARs OBSOLETI :
  • 220420Z AUTO 33005KT 280V360 9999 // FEW011/// OVC031/// 13/11 Q1014
  • 220350Z AUTO 34005KT 310V030 9999 // FEW011/// SCT022/// OVC028/// 13/11 Q1014
  • 220320Z AUTO 33005KT 290V030 9999 // SCT018/// OVC021/// 13/10 Q1014
  • 220250Z AUTO 32007KT 9999 // SCT010/// BKN013/// OVC024/// 13/10 Q1013
  • 220220Z AUTO 32008KT 9999 // BKN006/// BKN010/// OVC023/// 13/11 Q1013

Previsioni scadute.



MetMap, La meteo Aeronautica in un colpo d'occhio ! - Copyright ORBIFLY Dicembre 2007 - Disclaimer

ORBIFLY MET'MAP TEAM :

Programmazione e sviluppo : Alexandra Zaïnal
Concezione : Baudouin d'Aumeries
Aiuto per la programmazione : Marc-Olivier Méhu
Supporto tecnico e logistico : Manuel Goepfert
Aiuto per la traduzione : Arnaldo La Scala

Contatto : metmap@orbifly.com




FONTI E CREDITI :

   NOAA